sensor_id;sensor_type;location;lat;lon;timestamp;temperature;humidity
9984;DHT22;16737;50.932;6.780;2024-01-11T00:02:11;-1.10;80.90
9984;DHT22;16737;50.932;6.780;2024-01-11T00:04:39;-1.10;80.90
9984;DHT22;16737;50.932;6.780;2024-01-11T00:07:08;-1.10;81.00
9984;DHT22;16737;50.932;6.780;2024-01-11T00:09:38;-1.20;80.90
9984;DHT22;16737;50.932;6.780;2024-01-11T00:12:06;-1.20;81.00
9984;DHT22;16737;50.932;6.780;2024-01-11T00:14:34;-1.20;81.00
9984;DHT22;16737;50.932;6.780;2024-01-11T00:17:01;-1.20;81.00
9984;DHT22;16737;50.932;6.780;2024-01-11T00:19:28;-1.20;81.00
9984;DHT22;16737;50.932;6.780;2024-01-11T00:21:56;-1.20;81.10
9984;DHT22;16737;50.932;6.780;2024-01-11T00:24:23;-1.20;81.20
9984;DHT22;16737;50.932;6.780;2024-01-11T00:26:50;-1.10;81.30
9984;DHT22;16737;50.932;6.780;2024-01-11T00:29:17;-1.20;81.20
9984;DHT22;16737;50.932;6.780;2024-01-11T00:31:44;-1.20;81.30
9984;DHT22;16737;50.932;6.780;2024-01-11T00:34:11;-1.10;81.40
9984;DHT22;16737;50.932;6.780;2024-01-11T00:36:38;-1.20;81.40
9984;DHT22;16737;50.932;6.780;2024-01-11T00:39:06;-1.20;81.40
9984;DHT22;16737;50.932;6.780;2024-01-11T00:41:33;-1.20;81.40
9984;DHT22;16737;50.932;6.780;2024-01-11T00:44:00;-1.20;81.50
9984;DHT22;16737;50.932;6.780;2024-01-11T00:46:26;-1.20;81.50
9984;DHT22;16737;50.932;6.780;2024-01-11T00:48:53;-1.20;81.50
9984;DHT22;16737;50.932;6.780;2024-01-11T00:51:20;-1.20;81.60
9984;DHT22;16737;50.932;6.780;2024-01-11T00:53:47;-1.20;81.60
9984;DHT22;16737;50.932;6.780;2024-01-11T00:56:19;-1.20;81.60
9984;DHT22;16737;50.932;6.780;2024-01-11T00:58:46;-1.20;81.70
9984;DHT22;16737;50.932;6.780;2024-01-11T01:01:13;-1.10;81.80
9984;DHT22;16737;50.932;6.780;2024-01-11T01:03:40;-1.20;81.70
9984;DHT22;16737;50.932;6.780;2024-01-11T01:06:07;-1.10;81.80
9984;DHT22;16737;50.932;6.780;2024-01-11T01:08:34;-1.10;81.80
9984;DHT22;16737;50.932;6.780;2024-01-11T01:11:01;-1.10;81.80
9984;DHT22;16737;50.932;6.780;2024-01-11T01:13:30;-1.10;81.80
9984;DHT22;16737;50.932;6.780;2024-01-11T01:15:57;-1.10;81.90
9984;DHT22;16737;50.932;6.780;2024-01-11T01:18:24;-1.10;81.80
9984;DHT22;16737;50.932;6.780;2024-01-11T01:20:51;-1.10;81.70
9984;DHT22;16737;50.932;6.780;2024-01-11T01:23:18;-1.10;81.70
9984;DHT22;16737;50.932;6.780;2024-01-11T01:25:45;-1.10;81.60
9984;DHT22;16737;50.932;6.780;2024-01-11T01:28:13;-1.10;81.70
9984;DHT22;16737;50.932;6.780;2024-01-11T01:30:42;-1.10;81.70
9984;DHT22;16737;50.932;6.780;2024-01-11T01:33:09;-1.10;81.70
9984;DHT22;16737;50.932;6.780;2024-01-11T01:35:35;-1.10;81.60
9984;DHT22;16737;50.932;6.780;2024-01-11T01:38:03;-1.10;81.60
9984;DHT22;16737;50.932;6.780;2024-01-11T01:40:30;-1.10;81.60
9984;DHT22;16737;50.932;6.780;2024-01-11T01:42:58;-1.10;81.50
9984;DHT22;16737;50.932;6.780;2024-01-11T01:45:25;-1.10;81.60
9984;DHT22;16737;50.932;6.780;2024-01-11T01:47:55;-1.10;81.60
9984;DHT22;16737;50.932;6.780;2024-01-11T01:50:22;-1.10;81.60
9984;DHT22;16737;50.932;6.780;2024-01-11T01:52:50;-1.10;81.60
9984;DHT22;16737;50.932;6.780;2024-01-11T01:55:18;-1.20;81.50
9984;DHT22;16737;50.932;6.780;2024-01-11T01:57:47;-1.20;81.50
9984;DHT22;16737;50.932;6.780;2024-01-11T02:00:16;-1.20;81.50
9984;DHT22;16737;50.932;6.780;2024-01-11T02:02:44;-1.20;81.50
9984;DHT22;16737;50.932;6.780;2024-01-11T02:05:14;-1.10;81.60
9984;DHT22;16737;50.932;6.780;2024-01-11T02:07:44;-1.10;81.60
9984;DHT22;16737;50.932;6.780;2024-01-11T02:10:11;-1.10;81.60
9984;DHT22;16737;50.932;6.780;2024-01-11T02:12:39;-1.10;81.60
9984;DHT22;16737;50.932;6.780;2024-01-11T02:15:07;-1.10;81.60
9984;DHT22;16737;50.932;6.780;2024-01-11T02:17:34;-1.10;81.70
9984;DHT22;16737;50.932;6.780;2024-01-11T02:20:02;-1.10;81.70
9984;DHT22;16737;50.932;6.780;2024-01-11T02:22:34;-1.10;81.60
9984;DHT22;16737;50.932;6.780;2024-01-11T02:25:04;-1.10;81.70
9984;DHT22;16737;50.932;6.780;2024-01-11T02:27:33;-1.10;81.60
9984;DHT22;16737;50.932;6.780;2024-01-11T02:30:11;-1.10;81.60
9984;DHT22;16737;50.932;6.780;2024-01-11T02:32:39;-1.10;81.50
9984;DHT22;16737;50.932;6.780;2024-01-11T02:35:07;-1.10;81.50
9984;DHT22;16737;50.932;6.780;2024-01-11T02:37:35;-1.10;81.50
9984;DHT22;16737;50.932;6.780;2024-01-11T02:40:07;-1.10;81.50
9984;DHT22;16737;50.932;6.780;2024-01-11T02:42:35;-1.10;81.60
9984;DHT22;16737;50.932;6.780;2024-01-11T02:45:03;-1.20;81.40
9984;DHT22;16737;50.932;6.780;2024-01-11T02:47:30;-1.20;81.40
9984;DHT22;16737;50.932;6.780;2024-01-11T02:49:57;-1.20;81.40
9984;DHT22;16737;50.932;6.780;2024-01-11T02:52:24;-1.20;81.40
9984;DHT22;16737;50.932;6.780;2024-01-11T02:54:51;-1.20;81.40
9984;DHT22;16737;50.932;6.780;2024-01-11T02:57:19;-1.20;81.50
9984;DHT22;16737;50.932;6.780;2024-01-11T02:59:46;-1.20;81.60
9984;DHT22;16737;50.932;6.780;2024-01-11T03:02:13;-1.20;81.60
9984;DHT22;16737;50.932;6.780;2024-01-11T03:04:40;-1.20;81.70
9984;DHT22;16737;50.932;6.780;2024-01-11T03:07:07;-1.20;81.70
9984;DHT22;16737;50.932;6.780;2024-01-11T03:09:34;-1.30;81.70
9984;DHT22;16737;50.932;6.780;2024-01-11T03:12:01;-1.30;81.70
9984;DHT22;16737;50.932;6.780;2024-01-11T03:14:30;-1.30;81.70
9984;DHT22;16737;50.932;6.780;2024-01-11T03:16:56;-1.30;81.80
9984;DHT22;16737;50.932;6.780;2024-01-11T03:19:23;-1.30;81.70
9984;DHT22;16737;50.932;6.780;2024-01-11T03:21:50;-1.30;81.80
9984;DHT22;16737;50.932;6.780;2024-01-11T03:24:17;-1.30;81.80
9984;DHT22;16737;50.932;6.780;2024-01-11T03:26:44;-1.30;81.90
9984;DHT22;16737;50.932;6.780;2024-01-11T03:29:11;-1.30;81.90
9984;DHT22;16737;50.932;6.780;2024-01-11T03:31:40;-1.30;82.00
9984;DHT22;16737;50.932;6.780;2024-01-11T03:34:08;-1.30;82.00
9984;DHT22;16737;50.932;6.780;2024-01-11T03:36:35;-1.30;82.00
9984;DHT22;16737;50.932;6.780;2024-01-11T03:39:02;-1.30;82.00
9984;DHT22;16737;50.932;6.780;2024-01-11T03:41:29;-1.30;82.00
9984;DHT22;16737;50.932;6.780;2024-01-11T03:43:56;-1.30;82.00
9984;DHT22;16737;50.932;6.780;2024-01-11T03:46:23;-1.30;82.00
9984;DHT22;16737;50.932;6.780;2024-01-11T03:48:52;-1.30;82.00
9984;DHT22;16737;50.932;6.780;2024-01-11T03:51:18;-1.30;82.00
9984;DHT22;16737;50.932;6.780;2024-01-11T03:53:45;-1.30;81.80
9984;DHT22;16737;50.932;6.780;2024-01-11T03:56:12;-1.30;81.70
9984;DHT22;16737;50.932;6.780;2024-01-11T03:58:39;-1.30;81.60
9984;DHT22;16737;50.932;6.780;2024-01-11T04:01:10;-1.30;81.60
9984;DHT22;16737;50.932;6.780;2024-01-11T04:03:37;-1.30;81.60
9984;DHT22;16737;50.932;6.780;2024-01-11T04:06:06;-1.30;81.70
9984;DHT22;16737;50.932;6.780;2024-01-11T04:08:33;-1.40;81.60
9984;DHT22;16737;50.932;6.780;2024-01-11T04:11:02;-1.40;81.60
9984;DHT22;16737;50.932;6.780;2024-01-11T04:13:29;-1.40;81.70
9984;DHT22;16737;50.932;6.780;2024-01-11T04:15:56;-1.40;81.70
9984;DHT22;16737;50.932;6.780;2024-01-11T04:18:23;-1.40;81.70
9984;DHT22;16737;50.932;6.780;2024-01-11T04:20:50;-1.40;81.70
9984;DHT22;16737;50.932;6.780;2024-01-11T04:23:18;-1.40;81.70
9984;DHT22;16737;50.932;6.780;2024-01-11T04:25:45;-1.40;81.80
9984;DHT22;16737;50.932;6.780;2024-01-11T04:28:12;-1.50;81.70
9984;DHT22;16737;50.932;6.780;2024-01-11T04:30:39;-1.50;81.70
9984;DHT22;16737;50.932;6.780;2024-01-11T04:33:06;-1.50;81.80
9984;DHT22;16737;50.932;6.780;2024-01-11T04:35:33;-1.50;81.80
9984;DHT22;16737;50.932;6.780;2024-01-11T04:38:00;-1.50;82.50
9984;DHT22;16737;50.932;6.780;2024-01-11T04:40:28;-1.50;81.70
9984;DHT22;16737;50.932;6.780;2024-01-11T04:42:55;-1.50;81.80
9984;DHT22;16737;50.932;6.780;2024-01-11T04:45:22;-1.50;81.80
9984;DHT22;16737;50.932;6.780;2024-01-11T04:47:50;-1.50;81.80
9984;DHT22;16737;50.932;6.780;2024-01-11T04:50:17;-1.50;81.90
9984;DHT22;16737;50.932;6.780;2024-01-11T04:52:44;-1.50;81.90
9984;DHT22;16737;50.932;6.780;2024-01-11T04:55:11;-1.60;81.80
9984;DHT22;16737;50.932;6.780;2024-01-11T04:57:39;-1.60;81.80
9984;DHT22;16737;50.932;6.780;2024-01-11T05:00:07;-1.60;81.80
9984;DHT22;16737;50.932;6.780;2024-01-11T05:02:35;-1.60;81.70
9984;DHT22;16737;50.932;6.780;2024-01-11T05:05:02;-1.70;81.60
9984;DHT22;16737;50.932;6.780;2024-01-11T05:07:30;-1.70;81.60
9984;DHT22;16737;50.932;6.780;2024-01-11T05:09:57;-1.70;81.50
9984;DHT22;16737;50.932;6.780;2024-01-11T05:12:24;-1.70;81.50
9984;DHT22;16737;50.932;6.780;2024-01-11T05:14:52;-1.70;81.60
9984;DHT22;16737;50.932;6.780;2024-01-11T05:17:19;-1.80;81.50
9984;DHT22;16737;50.932;6.780;2024-01-11T05:19:46;-1.80;81.50
9984;DHT22;16737;50.932;6.780;2024-01-11T05:22:13;-1.80;81.60
9984;DHT22;16737;50.932;6.780;2024-01-11T05:24:40;-1.90;81.50
9984;DHT22;16737;50.932;6.780;2024-01-11T05:27:07;-1.90;81.60
9984;DHT22;16737;50.932;6.780;2024-01-11T05:29:34;-1.90;81.60
9984;DHT22;16737;50.932;6.780;2024-01-11T05:32:02;-1.80;81.70
9984;DHT22;16737;50.932;6.780;2024-01-11T05:34:29;-1.90;82.50
9984;DHT22;16737;50.932;6.780;2024-01-11T05:36:56;-1.90;82.00
9984;DHT22;16737;50.932;6.780;2024-01-11T05:39:23;-2.00;82.60
9984;DHT22;16737;50.932;6.780;2024-01-11T05:41:50;-2.00;82.00
9984;DHT22;16737;50.932;6.780;2024-01-11T05:44:17;-1.90;82.00
9984;DHT22;16737;50.932;6.780;2024-01-11T05:46:44;-2.00;82.00
9984;DHT22;16737;50.932;6.780;2024-01-11T05:49:12;-1.90;82.10
9984;DHT22;16737;50.932;6.780;2024-01-11T05:51:40;-1.90;82.30
9984;DHT22;16737;50.932;6.780;2024-01-11T05:54:07;-2.00;82.20
9984;DHT22;16737;50.932;6.780;2024-01-11T05:56:34;-2.00;82.20
9984;DHT22;16737;50.932;6.780;2024-01-11T05:59:01;-2.00;82.30
9984;DHT22;16737;50.932;6.780;2024-01-11T06:01:28;-1.90;82.40
9984;DHT22;16737;50.932;6.780;2024-01-11T06:03:54;-1.90;82.40
9984;DHT22;16737;50.932;6.780;2024-01-11T06:06:23;-2.00;82.30
9984;DHT22;16737;50.932;6.780;2024-01-11T06:08:50;-2.00;82.30
9984;DHT22;16737;50.932;6.780;2024-01-11T06:11:17;-2.00;82.30
9984;DHT22;16737;50.932;6.780;2024-01-11T06:13:45;-2.00;82.20
9984;DHT22;16737;50.932;6.780;2024-01-11T06:16:12;-2.00;82.20
9984;DHT22;16737;50.932;6.780;2024-01-11T06:18:39;-2.00;82.20
9984;DHT22;16737;50.932;6.780;2024-01-11T06:21:06;-2.00;82.30
9984;DHT22;16737;50.932;6.780;2024-01-11T06:23:34;-2.00;82.30
9984;DHT22;16737;50.932;6.780;2024-01-11T06:26:01;-2.00;82.30
9984;DHT22;16737;50.932;6.780;2024-01-11T06:28:28;-2.10;82.30
9984;DHT22;16737;50.932;6.780;2024-01-11T06:30:55;-2.00;82.50
9984;DHT22;16737;50.932;6.780;2024-01-11T06:33:22;-2.10;82.40
9984;DHT22;16737;50.932;6.780;2024-01-11T06:35:49;-2.10;82.50
9984;DHT22;16737;50.932;6.780;2024-01-11T06:38:16;-2.10;82.50
9984;DHT22;16737;50.932;6.780;2024-01-11T06:40:44;-2.10;82.50
9984;DHT22;16737;50.932;6.780;2024-01-11T06:43:11;-2.10;82.50
9984;DHT22;16737;50.932;6.780;2024-01-11T06:45:38;-2.10;82.50
9984;DHT22;16737;50.932;6.780;2024-01-11T06:48:06;-2.10;82.60
9984;DHT22;16737;50.932;6.780;2024-01-11T06:50:33;-2.10;82.60
9984;DHT22;16737;50.932;6.780;2024-01-11T06:53:00;-2.10;82.60
9984;DHT22;16737;50.932;6.780;2024-01-11T06:55:28;-2.10;82.60
9984;DHT22;16737;50.932;6.780;2024-01-11T06:57:56;-2.10;82.60
9984;DHT22;16737;50.932;6.780;2024-01-11T07:00:24;-2.10;82.70
9984;DHT22;16737;50.932;6.780;2024-01-11T07:02:51;-2.10;82.60
9984;DHT22;16737;50.932;6.780;2024-01-11T07:05:19;-2.10;82.50
9984;DHT22;16737;50.932;6.780;2024-01-11T07:07:46;-2.20;82.40
9984;DHT22;16737;50.932;6.780;2024-01-11T07:10:13;-2.20;82.40
9984;DHT22;16737;50.932;6.780;2024-01-11T07:12:41;-2.20;82.40
9984;DHT22;16737;50.932;6.780;2024-01-11T07:15:10;-2.20;82.50
9984;DHT22;16737;50.932;6.780;2024-01-11T07:17:38;-2.20;82.60
9984;DHT22;16737;50.932;6.780;2024-01-11T07:20:06;-2.20;82.70
9984;DHT22;16737;50.932;6.780;2024-01-11T07:22:34;-2.20;82.80
9984;DHT22;16737;50.932;6.780;2024-01-11T07:25:01;-2.30;82.60
9984;DHT22;16737;50.932;6.780;2024-01-11T07:27:29;-2.30;82.60
9984;DHT22;16737;50.932;6.780;2024-01-11T07:29:56;-2.20;82.70
9984;DHT22;16737;50.932;6.780;2024-01-11T07:32:25;-2.30;82.70
9984;DHT22;16737;50.932;6.780;2024-01-11T07:34:53;-2.30;82.60
9984;DHT22;16737;50.932;6.780;2024-01-11T07:37:20;-2.30;82.60
9984;DHT22;16737;50.932;6.780;2024-01-11T07:39:47;-2.30;82.60
9984;DHT22;16737;50.932;6.780;2024-01-11T07:42:15;-2.30;82.80
9984;DHT22;16737;50.932;6.780;2024-01-11T07:44:42;-2.30;82.70
9984;DHT22;16737;50.932;6.780;2024-01-11T07:47:09;-2.30;82.80
9984;DHT22;16737;50.932;6.780;2024-01-11T07:49:38;-2.30;82.90
9984;DHT22;16737;50.932;6.780;2024-01-11T07:52:05;-2.30;82.90
9984;DHT22;16737;50.932;6.780;2024-01-11T07:54:32;-2.30;82.90
9984;DHT22;16737;50.932;6.780;2024-01-11T07:56:59;-2.30;82.90
9984;DHT22;16737;50.932;6.780;2024-01-11T07:59:32;-2.30;82.90
9984;DHT22;16737;50.932;6.780;2024-01-11T08:02:01;-2.30;82.80
9984;DHT22;16737;50.932;6.780;2024-01-11T08:04:29;-2.40;82.70
9984;DHT22;16737;50.932;6.780;2024-01-11T08:06:58;-2.40;82.80
9984;DHT22;16737;50.932;6.780;2024-01-11T08:09:25;-2.40;82.80
9984;DHT22;16737;50.932;6.780;2024-01-11T08:11:53;-2.40;82.80
9984;DHT22;16737;50.932;6.780;2024-01-11T08:14:20;-2.40;82.80
9984;DHT22;16737;50.932;6.780;2024-01-11T08:16:47;-2.40;83.00
9984;DHT22;16737;50.932;6.780;2024-01-11T08:19:14;-2.30;83.20
9984;DHT22;16737;50.932;6.780;2024-01-11T08:21:41;-2.30;84.10
9984;DHT22;16737;50.932;6.780;2024-01-11T08:24:09;-2.30;83.30
9984;DHT22;16737;50.932;6.780;2024-01-11T08:26:36;-2.30;83.50
9984;DHT22;16737;50.932;6.780;2024-01-11T08:29:03;-2.30;83.60
9984;DHT22;16737;50.932;6.780;2024-01-11T08:31:31;-2.20;83.90
9984;DHT22;16737;50.932;6.780;2024-01-11T08:33:59;-2.20;83.90
9984;DHT22;16737;50.932;6.780;2024-01-11T08:36:30;-2.20;84.00
9984;DHT22;16737;50.932;6.780;2024-01-11T08:38:59;-2.10;84.30
9984;DHT22;16737;50.932;6.780;2024-01-11T08:41:28;-2.10;84.30
9984;DHT22;16737;50.932;6.780;2024-01-11T08:43:54;-2.00;84.50
9984;DHT22;16737;50.932;6.780;2024-01-11T08:46:24;-2.00;84.50
9984;DHT22;16737;50.932;6.780;2024-01-11T08:48:52;-1.90;84.70
9984;DHT22;16737;50.932;6.780;2024-01-11T08:51:22;-1.90;84.70
9984;DHT22;16737;50.932;6.780;2024-01-11T08:53:49;-1.80;85.00
9984;DHT22;16737;50.932;6.780;2024-01-11T08:56:16;-1.70;85.10
9984;DHT22;16737;50.932;6.780;2024-01-11T08:58:44;-1.70;85.10
9984;DHT22;16737;50.932;6.780;2024-01-11T09:01:12;-1.60;85.30
9984;DHT22;16737;50.932;6.780;2024-01-11T09:03:39;-1.50;85.40
9984;DHT22;16737;50.932;6.780;2024-01-11T09:06:06;-1.50;85.40
9984;DHT22;16737;50.932;6.780;2024-01-11T09:08:33;-1.40;85.60
9984;DHT22;16737;50.932;6.780;2024-01-11T09:11:01;-1.30;85.60
9984;DHT22;16737;50.932;6.780;2024-01-11T09:13:28;-1.30;85.70
9984;DHT22;16737;50.932;6.780;2024-01-11T09:15:57;-1.20;85.80
9984;DHT22;16737;50.932;6.780;2024-01-11T09:18:24;-1.10;85.90
9984;DHT22;16737;50.932;6.780;2024-01-11T09:20:51;-1.00;85.90
9984;DHT22;16737;50.932;6.780;2024-01-11T09:23:18;-0.90;85.90
9984;DHT22;16737;50.932;6.780;2024-01-11T09:25:45;-0.90;85.80
9984;DHT22;16737;50.932;6.780;2024-01-11T09:28:12;-0.80;85.90
9984;DHT22;16737;50.932;6.780;2024-01-11T09:30:39;-0.70;86.00
9984;DHT22;16737;50.932;6.780;2024-01-11T09:33:07;-0.70;86.00
9984;DHT22;16737;50.932;6.780;2024-01-11T09:35:34;-0.60;86.10
9984;DHT22;16737;50.932;6.780;2024-01-11T09:38:01;-0.50;86.00
9984;DHT22;16737;50.932;6.780;2024-01-11T09:40:29;-0.50;85.80
9984;DHT22;16737;50.932;6.780;2024-01-11T09:42:56;-0.40;86.10
9984;DHT22;16737;50.932;6.780;2024-01-11T09:45:24;-0.30;86.30
9984;DHT22;16737;50.932;6.780;2024-01-11T09:47:52;-0.20;86.60
9984;DHT22;16737;50.932;6.780;2024-01-11T09:50:21;-0.20;86.70
9984;DHT22;16737;50.932;6.780;2024-01-11T09:52:51;-0.10;86.80
9984;DHT22;16737;50.932;6.780;2024-01-11T09:55:19;0.00;86.80
9984;DHT22;16737;50.932;6.780;2024-01-11T09:57:47;0.10;86.90
9984;DHT22;16737;50.932;6.780;2024-01-11T10:00:17;0.20;87.00
9984;DHT22;16737;50.932;6.780;2024-01-11T10:02:46;0.30;86.90
9984;DHT22;16737;50.932;6.780;2024-01-11T10:05:13;0.40;87.10
9984;DHT22;16737;50.932;6.780;2024-01-11T10:07:43;0.50;87.20
9984;DHT22;16737;50.932;6.780;2024-01-11T10:10:11;0.60;87.40
9984;DHT22;16737;50.932;6.780;2024-01-11T10:12:40;0.70;87.50
9984;DHT22;16737;50.932;6.780;2024-01-11T10:15:09;0.70;87.50
9984;DHT22;16737;50.932;6.780;2024-01-11T10:17:38;0.80;87.50
9984;DHT22;16737;50.932;6.780;2024-01-11T10:20:08;1.00;87.70
9984;DHT22;16737;50.932;6.780;2024-01-11T10:22:36;1.10;87.60
9984;DHT22;16737;50.932;6.780;2024-01-11T10:25:14;1.20;87.60
9984;DHT22;16737;50.932;6.780;2024-01-11T10:27:44;1.30;87.50
9984;DHT22;16737;50.932;6.780;2024-01-11T10:30:13;1.40;87.10
9984;DHT22;16737;50.932;6.780;2024-01-11T10:32:42;1.40;86.80
9984;DHT22;16737;50.932;6.780;2024-01-11T10:35:10;1.50;87.40
9984;DHT22;16737;50.932;6.780;2024-01-11T10:37:38;1.50;86.40
9984;DHT22;16737;50.932;6.780;2024-01-11T10:40:07;1.60;86.40
9984;DHT22;16737;50.932;6.780;2024-01-11T10:42:41;1.60;86.40
9984;DHT22;16737;50.932;6.780;2024-01-11T10:45:14;1.60;86.40
9984;DHT22;16737;50.932;6.780;2024-01-11T10:47:50;1.60;86.40
9984;DHT22;16737;50.932;6.780;2024-01-11T10:50:19;1.70;86.30
9984;DHT22;16737;50.932;6.780;2024-01-11T10:52:56;1.70;86.20
9984;DHT22;16737;50.932;6.780;2024-01-11T10:55:34;1.70;86.30
9984;DHT22;16737;50.932;6.780;2024-01-11T10:58:03;1.70;86.10
9984;DHT22;16737;50.932;6.780;2024-01-11T11:00:31;1.80;86.40
9984;DHT22;16737;50.932;6.780;2024-01-11T11:03:03;1.80;86.40
9984;DHT22;16737;50.932;6.780;2024-01-11T11:05:32;1.80;86.40
9984;DHT22;16737;50.932;6.780;2024-01-11T11:08:02;1.90;86.50
9984;DHT22;16737;50.932;6.780;2024-01-11T11:10:31;1.90;86.50
9984;DHT22;16737;50.932;6.780;2024-01-11T11:13:02;1.90;86.50
9984;DHT22;16737;50.932;6.780;2024-01-11T11:15:32;2.00;86.70
9984;DHT22;16737;50.932;6.780;2024-01-11T11:18:02;2.00;86.60
9984;DHT22;16737;50.932;6.780;2024-01-11T11:20:31;2.10;86.70
9984;DHT22;16737;50.932;6.780;2024-01-11T11:23:05;2.10;86.60
9984;DHT22;16737;50.932;6.780;2024-01-11T11:25:34;2.20;86.90
9984;DHT22;16737;50.932;6.780;2024-01-11T11:28:03;2.20;86.70
9984;DHT22;16737;50.932;6.780;2024-01-11T11:30:31;2.30;86.90
9984;DHT22;16737;50.932;6.780;2024-01-11T11:33:07;2.30;86.90
9984;DHT22;16737;50.932;6.780;2024-01-11T11:35:36;2.50;87.00
9984;DHT22;16737;50.932;6.780;2024-01-11T11:38:03;2.40;86.90
9984;DHT22;16737;50.932;6.780;2024-01-11T11:40:32;2.50;86.90
9984;DHT22;16737;50.932;6.780;2024-01-11T11:43:06;2.50;86.90
9984;DHT22;16737;50.932;6.780;2024-01-11T11:45:33;2.60;87.00
9984;DHT22;16737;50.932;6.780;2024-01-11T11:48:00;2.70;86.90
9984;DHT22;16737;50.932;6.780;2024-01-11T11:50:28;2.70;86.80
9984;DHT22;16737;50.932;6.780;2024-01-11T11:52:57;2.80;87.00
9984;DHT22;16737;50.932;6.780;2024-01-11T11:55:24;2.90;87.00
9984;DHT22;16737;50.932;6.780;2024-01-11T11:57:52;3.00;87.10
9984;DHT22;16737;50.932;6.780;2024-01-11T12:00:21;3.00;87.00
9984;DHT22;16737;50.932;6.780;2024-01-11T12:02:50;3.10;87.10
9984;DHT22;16737;50.932;6.780;2024-01-11T12:05:17;3.20;87.20
9984;DHT22;16737;50.932;6.780;2024-01-11T12:07:45;3.20;87.10
9984;DHT22;16737;50.932;6.780;2024-01-11T12:10:13;3.30;86.90
9984;DHT22;16737;50.932;6.780;2024-01-11T12:12:41;3.40;86.90
9984;DHT22;16737;50.932;6.780;2024-01-11T12:15:08;3.40;86.70
9984;DHT22;16737;50.932;6.780;2024-01-11T12:17:38;3.50;86.80
9984;DHT22;16737;50.932;6.780;2024-01-11T12:20:08;3.60;86.90
9984;DHT22;16737;50.932;6.780;2024-01-11T12:22:36;3.60;86.70
9984;DHT22;16737;50.932;6.780;2024-01-11T12:25:04;3.70;86.80
9984;DHT22;16737;50.932;6.780;2024-01-11T12:27:32;3.70;86.70
9984;DHT22;16737;50.932;6.780;2024-01-11T12:30:01;3.80;86.70
9984;DHT22;16737;50.932;6.780;2024-01-11T12:32:28;3.90;86.60
9984;DHT22;16737;50.932;6.780;2024-01-11T12:34:58;3.90;86.40
9984;DHT22;16737;50.932;6.780;2024-01-11T12:37:26;4.00;86.10
9984;DHT22;16737;50.932;6.780;2024-01-11T12:39:58;4.00;86.10
9984;DHT22;16737;50.932;6.780;2024-01-11T12:42:25;4.10;86.00
9984;DHT22;16737;50.932;6.780;2024-01-11T12:44:52;4.10;86.00
9984;DHT22;16737;50.932;6.780;2024-01-11T12:47:19;4.10;86.00
9984;DHT22;16737;50.932;6.780;2024-01-11T12:49:47;4.20;86.10
9984;DHT22;16737;50.932;6.780;2024-01-11T12:52:17;4.20;86.00
9984;DHT22;16737;50.932;6.780;2024-01-11T12:54:44;4.30;85.90
9984;DHT22;16737;50.932;6.780;2024-01-11T12:57:12;4.30;85.90
9984;DHT22;16737;50.932;6.780;2024-01-11T12:59:43;4.40;85.90
9984;DHT22;16737;50.932;6.780;2024-01-11T13:02:11;4.40;85.80
9984;DHT22;16737;50.932;6.780;2024-01-11T13:04:39;4.50;85.80
9984;DHT22;16737;50.932;6.780;2024-01-11T13:07:06;4.50;85.80
9984;DHT22;16737;50.932;6.780;2024-01-11T13:09:35;4.60;85.70
9984;DHT22;16737;50.932;6.780;2024-01-11T13:12:02;4.60;85.50
9984;DHT22;16737;50.932;6.780;2024-01-11T13:14:29;4.70;85.60
9984;DHT22;16737;50.932;6.780;2024-01-11T13:16:57;4.80;85.60
9984;DHT22;16737;50.932;6.780;2024-01-11T13:19:24;4.80;85.60
9984;DHT22;16737;50.932;6.780;2024-01-11T13:21:50;4.90;85.10
9984;DHT22;16737;50.932;6.780;2024-01-11T13:24:18;4.90;85.10
9984;DHT22;16737;50.932;6.780;2024-01-11T13:26:46;4.90;84.80
9984;DHT22;16737;50.932;6.780;2024-01-11T13:29:13;5.00;84.40
9984;DHT22;16737;50.932;6.780;2024-01-11T13:31:40;5.00;84.60
9984;DHT22;16737;50.932;6.780;2024-01-11T13:34:07;5.00;84.50
9984;DHT22;16737;50.932;6.780;2024-01-11T13:36:34;5.00;84.60
9984;DHT22;16737;50.932;6.780;2024-01-11T13:39:01;5.00;84.60
9984;DHT22;16737;50.932;6.780;2024-01-11T13:41:28;5.10;84.80
9984;DHT22;16737;50.932;6.780;2024-01-11T13:43:57;5.10;84.50
9984;DHT22;16737;50.932;6.780;2024-01-11T13:46:24;5.10;84.30
9984;DHT22;16737;50.932;6.780;2024-01-11T13:48:51;5.10;84.30
9984;DHT22;16737;50.932;6.780;2024-01-11T13:51:18;5.10;84.40
9984;DHT22;16737;50.932;6.780;2024-01-11T13:53:45;5.20;84.50
9984;DHT22;16737;50.932;6.780;2024-01-11T13:56:13;5.10;84.50
9984;DHT22;16737;50.932;6.780;2024-01-11T13:58:40;5.10;84.40
9984;DHT22;16737;50.932;6.780;2024-01-11T14:01:08;5.20;84.50
9984;DHT22;16737;50.932;6.780;2024-01-11T14:03:35;5.20;84.30
9984;DHT22;16737;50.932;6.780;2024-01-11T14:06:03;5.20;84.20
9984;DHT22;16737;50.932;6.780;2024-01-11T14:08:30;5.20;83.70
9984;DHT22;16737;50.932;6.780;2024-01-11T14:10:57;5.10;83.40
9984;DHT22;16737;50.932;6.780;2024-01-11T14:13:24;5.10;83.20
9984;DHT22;16737;50.932;6.780;2024-01-11T14:15:51;5.10;83.20
9984;DHT22;16737;50.932;6.780;2024-01-11T14:18:20;5.10;83.20
9984;DHT22;16737;50.932;6.780;2024-01-11T14:20:48;5.10;82.90
9984;DHT22;16737;50.932;6.780;2024-01-11T14:23:15;5.10;83.50
9984;DHT22;16737;50.932;6.780;2024-01-11T14:25:42;5.00;82.70
9984;DHT22;16737;50.932;6.780;2024-01-11T14:28:09;5.00;82.70
9984;DHT22;16737;50.932;6.780;2024-01-11T14:30:36;5.00;82.30
9984;DHT22;16737;50.932;6.780;2024-01-11T14:33:03;5.00;82.50
9984;DHT22;16737;50.932;6.780;2024-01-11T14:35:32;4.90;82.50
9984;DHT22;16737;50.932;6.780;2024-01-11T14:37:59;4.90;82.40
9984;DHT22;16737;50.932;6.780;2024-01-11T14:40:26;4.80;82.30
9984;DHT22;16737;50.932;6.780;2024-01-11T14:42:53;4.80;82.30
9984;DHT22;16737;50.932;6.780;2024-01-11T14:45:21;4.70;82.00
9984;DHT22;16737;50.932;6.780;2024-01-11T14:47:48;4.70;82.10
9984;DHT22;16737;50.932;6.780;2024-01-11T14:50:15;4.70;82.10
9984;DHT22;16737;50.932;6.780;2024-01-11T14:52:43;4.70;82.00
9984;DHT22;16737;50.932;6.780;2024-01-11T14:55:10;4.60;81.80
9984;DHT22;16737;50.932;6.780;2024-01-11T14:57:39;4.60;81.70
9984;DHT22;16737;50.932;6.780;2024-01-11T15:00:07;4.60;81.80
9984;DHT22;16737;50.932;6.780;2024-01-11T15:02:35;4.50;81.70
9984;DHT22;16737;50.932;6.780;2024-01-11T15:05:03;4.50;81.80
9984;DHT22;16737;50.932;6.780;2024-01-11T15:07:30;4.40;81.70
9984;DHT22;16737;50.932;6.780;2024-01-11T15:09:59;4.40;81.70
9984;DHT22;16737;50.932;6.780;2024-01-11T15:12:26;4.40;81.70
9984;DHT22;16737;50.932;6.780;2024-01-11T15:14:53;4.30;81.50
9984;DHT22;16737;50.932;6.780;2024-01-11T15:17:20;4.30;81.60
9984;DHT22;16737;50.932;6.780;2024-01-11T15:19:47;4.20;81.50
9984;DHT22;16737;50.932;6.780;2024-01-11T15:22:14;4.20;81.60
9984;DHT22;16737;50.932;6.780;2024-01-11T15:24:41;4.10;81.30
9984;DHT22;16737;50.932;6.780;2024-01-11T15:27:10;4.10;81.50
9984;DHT22;16737;50.932;6.780;2024-01-11T15:29:37;4.00;81.40
9984;DHT22;16737;50.932;6.780;2024-01-11T15:32:06;4.00;81.50
9984;DHT22;16737;50.932;6.780;2024-01-11T15:34:35;4.00;81.50
9984;DHT22;16737;50.932;6.780;2024-01-11T15:37:02;3.90;81.50
9984;DHT22;16737;50.932;6.780;2024-01-11T15:39:29;3.90;81.50
9984;DHT22;16737;50.932;6.780;2024-01-11T15:41:56;3.80;81.40
9984;DHT22;16737;50.932;6.780;2024-01-11T15:44:25;3.80;81.50
9984;DHT22;16737;50.932;6.780;2024-01-11T15:46:53;3.70;81.40
9984;DHT22;16737;50.932;6.780;2024-01-11T15:49:20;3.70;81.50
9984;DHT22;16737;50.932;6.780;2024-01-11T15:51:47;3.70;81.50
9984;DHT22;16737;50.932;6.780;2024-01-11T15:54:14;3.60;81.40
9984;DHT22;16737;50.932;6.780;2024-01-11T15:56:41;3.60;81.40